createdAt,value
2018-04-11T00:01:41.396Z,14.30
2018-04-11T00:04:07.384Z,14.30
2018-04-11T00:06:33.341Z,14.20
2018-04-11T00:08:59.372Z,14.30
2018-04-11T00:11:25.341Z,14.30
2018-04-11T00:13:51.300Z,14.30
2018-04-11T00:16:18.044Z,14.30
2018-04-11T00:18:44.041Z,14.20
2018-04-11T00:21:10.005Z,14.30
2018-04-11T00:23:36.036Z,14.20
2018-04-11T00:26:02.030Z,14.20
2018-04-11T00:28:28.040Z,14.20
2018-04-11T00:30:54.739Z,14.20
2018-04-11T00:33:20.728Z,14.10
2018-04-11T00:35:47.427Z,14.00
2018-04-11T00:38:13.431Z,14.10
2018-04-11T00:40:39.408Z,14.10
2018-04-11T00:43:05.371Z,14.00
2018-04-11T00:45:31.374Z,13.90
2018-04-11T00:47:57.349Z,13.80
2018-04-11T00:50:23.338Z,13.70
2018-04-11T00:55:46.057Z,13.60
2018-04-11T00:58:12.013Z,13.60
2018-04-11T01:00:38.004Z,13.50
2018-04-11T01:03:03.965Z,13.50
2018-04-11T01:05:29.976Z,13.50
2018-04-11T01:07:55.927Z,13.50
2018-04-11T01:10:21.916Z,13.50
2018-04-11T01:12:48.633Z,13.70
2018-04-11T01:15:14.687Z,13.70
2018-04-11T01:17:40.643Z,13.80
2018-04-11T01:20:07.333Z,13.70
2018-04-11T01:22:33.334Z,13.70
2018-04-11T01:25:00.094Z,13.40
2018-04-11T01:27:26.115Z,13.50
2018-04-11T01:29:52.803Z,13.30
2018-04-11T01:32:18.782Z,13.20
2018-04-11T01:34:44.776Z,13.20
2018-04-11T01:37:10.723Z,13.20
2018-04-11T01:39:36.711Z,13.10
2018-04-11T01:42:03.402Z,13.00
2018-04-11T01:44:29.405Z,13.00
2018-04-11T01:46:56.135Z,12.90
2018-04-11T01:49:22.111Z,12.90
2018-04-11T01:51:48.087Z,12.90
2018-04-11T01:54:14.070Z,12.90
2018-04-11T01:56:40.809Z,12.80
2018-04-11T01:59:07.504Z,12.80
2018-04-11T02:01:33.486Z,12.70
2018-04-11T02:03:59.498Z,12.60
2018-04-11T02:06:25.448Z,12.60
2018-04-11T02:08:51.448Z,12.60
2018-04-11T02:11:17.413Z,12.60
2018-04-11T02:13:43.379Z,12.60
2018-04-11T02:16:10.107Z,12.60
2018-04-11T02:18:36.096Z,12.60
2018-04-11T02:21:02.039Z,12.90
2018-04-11T02:23:28.043Z,13.00
2018-04-11T02:25:54.784Z,13.10
2018-04-11T02:28:21.506Z,13.10
2018-04-11T02:30:47.459Z,13.10
2018-04-11T02:33:13.461Z,13.10
2018-04-11T02:35:39.440Z,12.80
2018-04-11T02:38:05.409Z,12.50
2018-04-11T02:40:31.404Z,12.40
2018-04-11T02:42:57.367Z,12.30
2018-04-11T02:45:24.076Z,12.20
2018-04-11T02:47:50.056Z,12.20
2018-04-11T02:50:16.778Z,12.20
2018-04-11T02:52:42.772Z,12.20
2018-04-11T02:55:08.768Z,12.30
2018-04-11T02:57:34.725Z,12.40
2018-04-11T03:00:01.461Z,12.10
2018-04-11T03:02:28.222Z,11.90
2018-04-11T03:04:54.924Z,11.90
2018-04-11T03:07:20.918Z,11.90
2018-04-11T03:09:47.623Z,11.90
2018-04-11T03:12:13.620Z,11.90
2018-04-11T03:14:39.605Z,11.80
2018-04-11T03:17:05.592Z,11.70
2018-04-11T03:19:31.579Z,11.70
2018-04-11T03:21:57.573Z,11.60
2018-04-11T03:24:24.435Z,11.60
2018-04-11T03:26:50.399Z,11.50
2018-04-11T03:29:16.382Z,11.60
2018-04-11T03:31:43.131Z,11.70
2018-04-11T03:34:09.868Z,12.00
2018-04-11T03:36:35.853Z,12.00
2018-04-11T03:39:01.841Z,12.10
2018-04-11T03:41:27.846Z,12.20
2018-04-11T03:43:53.791Z,12.20
2018-04-11T03:46:19.792Z,11.90
2018-04-11T03:48:45.752Z,11.80
2018-04-11T03:51:11.712Z,11.70
2018-04-11T03:53:37.704Z,11.60
2018-04-11T03:56:03.647Z,11.60
2018-04-11T03:58:29.644Z,11.60
2018-04-11T04:00:56.344Z,11.70
2018-04-11T04:03:22.323Z,11.70
2018-04-11T04:05:48.262Z,11.70
2018-04-11T04:08:14.267Z,11.90
2018-04-11T04:10:40.266Z,12.00
2018-04-11T04:13:06.245Z,12.20
2018-04-11T04:15:44.579Z,12.10
2018-04-11T04:18:23.006Z,12.20
2018-04-11T04:20:48.996Z,12.10
2018-04-11T04:23:15.001Z,12.10
2018-04-11T04:25:41.740Z,12.10
2018-04-11T04:28:07.705Z,12.10
2018-04-11T04:30:33.705Z,12.10
2018-04-11T04:32:59.724Z,12.10
2018-04-11T04:35:25.716Z,12.20
2018-04-11T04:37:51.717Z,12.30
2018-04-11T04:40:17.679Z,12.40
2018-04-11T04:42:44.402Z,12.50
2018-04-11T04:45:10.393Z,12.40
2018-04-11T04:47:36.349Z,12.40
2018-04-11T04:50:02.351Z,12.40
2018-04-11T04:52:28.334Z,12.50
2018-04-11T04:54:54.296Z,12.50
2018-04-11T04:57:20.319Z,12.50
2018-04-11T04:59:46.282Z,12.50
2018-04-11T05:02:13.011Z,12.60
2018-04-11T05:04:38.973Z,12.60
2018-04-11T05:07:05.716Z,12.70
2018-04-11T05:09:32.437Z,12.70
2018-04-11T05:11:58.447Z,12.70
2018-04-11T05:14:24.416Z,12.70
2018-04-11T05:16:50.372Z,12.60
2018-04-11T05:19:16.356Z,12.70
2018-04-11T05:21:42.367Z,12.70
2018-04-11T05:24:09.043Z,13.00
2018-04-11T05:26:35.026Z,13.00
2018-04-11T05:29:01.034Z,12.80
2018-04-11T05:31:27.648Z,12.80
2018-04-11T05:33:53.640Z,12.80
2018-04-11T05:36:19.622Z,12.90
2018-04-11T05:38:45.563Z,12.90
2018-04-11T05:41:11.567Z,12.90
2018-04-11T05:43:38.315Z,13.00
2018-04-11T05:46:04.321Z,13.00
2018-04-11T05:48:30.299Z,13.00
2018-04-11T05:50:57.276Z,13.20
2018-04-11T05:53:23.303Z,13.10
2018-04-11T05:55:49.283Z,13.20
2018-04-11T05:58:15.276Z,13.30
2018-04-11T06:00:41.977Z,13.50
2018-04-11T06:03:07.964Z,13.50
2018-04-11T06:05:34.664Z,13.70
2018-04-11T06:08:00.644Z,13.70
2018-04-11T06:10:27.381Z,13.70
2018-04-11T06:12:53.360Z,13.70
2018-04-11T06:15:19.372Z,13.80
2018-04-11T06:17:46.107Z,13.70
2018-04-11T06:20:12.119Z,13.70
2018-04-11T06:22:38.071Z,13.70
2018-04-11T06:25:04.048Z,13.80
2018-04-11T06:27:30.077Z,13.70
2018-04-11T06:29:56.034Z,13.80
2018-04-11T06:32:22.041Z,13.80
2018-04-11T06:34:48.740Z,14.00
2018-04-11T06:37:14.767Z,13.90
2018-04-11T06:39:40.776Z,14.00
2018-04-11T06:42:07.517Z,14.10
2018-04-11T06:44:34.223Z,14.20
2018-04-11T06:47:00.207Z,14.20
2018-04-11T06:49:26.940Z,14.40
2018-04-11T06:51:52.891Z,14.40
2018-04-11T06:54:19.639Z,14.60
2018-04-11T06:56:45.633Z,14.60
2018-04-11T06:59:11.612Z,14.60
2018-04-11T07:01:37.607Z,14.70
2018-04-11T07:04:03.609Z,14.80
2018-04-11T07:06:30.367Z,15.00
2018-04-11T07:08:56.371Z,14.90
2018-04-11T07:11:22.321Z,14.90
2018-04-11T07:13:48.324Z,14.90
2018-04-11T07:16:14.320Z,14.90
2018-04-11T07:18:40.306Z,15.20
2018-04-11T07:21:06.294Z,15.20
2018-04-11T07:23:32.311Z,15.20
2018-04-11T07:25:59.121Z,15.50
2018-04-11T07:28:25.078Z,15.50
2018-04-11T07:30:51.065Z,15.60
2018-04-11T07:33:17.028Z,15.70
2018-04-11T07:35:43.022Z,15.80
2018-04-11T07:38:09.061Z,16.10
2018-04-11T07:40:35.020Z,16.40
2018-04-11T07:43:01.027Z,16.60
2018-04-11T07:45:27.782Z,16.60
2018-04-11T07:47:54.484Z,16.90
2018-04-11T07:50:20.507Z,16.90
2018-04-11T07:52:46.464Z,16.70
2018-04-11T07:55:12.683Z,16.80
2018-04-11T07:57:38.659Z,16.70
2018-04-11T08:00:04.633Z,16.90
2018-04-11T08:02:31.369Z,17.30
2018-04-11T08:04:58.158Z,17.40
2018-04-11T08:07:24.182Z,17.30
2018-04-11T08:09:50.145Z,17.40
2018-04-11T08:12:16.139Z,17.40
2018-04-11T08:14:42.882Z,17.90
2018-04-11T08:17:08.860Z,17.90
2018-04-11T08:19:34.823Z,18.00
2018-04-11T08:22:00.820Z,17.80
2018-04-11T08:24:26.804Z,17.80
2018-04-11T08:26:52.777Z,17.80
2018-04-11T08:29:19.517Z,17.90
2018-04-11T08:31:46.213Z,18.00
2018-04-11T08:34:12.225Z,18.00
2018-04-11T08:36:38.205Z,18.00
2018-04-11T08:39:04.944Z,18.30
2018-04-11T08:41:30.994Z,18.20
2018-04-11T08:43:56.963Z,18.20
2018-04-11T08:46:23.696Z,18.40
2018-04-11T08:48:49.693Z,18.40
2018-04-11T08:51:15.655Z,18.40
2018-04-11T08:53:42.355Z,18.60
2018-04-11T08:56:09.077Z,18.60
2018-04-11T08:58:35.088Z,18.60
2018-04-11T09:01:01.067Z,18.60
2018-04-11T09:03:27.036Z,18.60
2018-04-11T09:05:53.103Z,18.90
2018-04-11T09:08:19.060Z,18.80
2018-04-11T09:10:45.079Z,18.80
2018-04-11T09:13:11.035Z,19.00
2018-04-11T09:15:37.013Z,19.20
2018-04-11T09:18:02.981Z,19.20
2018-04-11T09:20:29.057Z,19.30
2018-04-11T09:22:55.767Z,19.80
2018-04-11T09:25:21.732Z,19.70
2018-04-11T09:27:47.733Z,19.60
2018-04-11T09:30:13.694Z,19.80
2018-04-11T09:32:39.683Z,19.70
2018-04-11T09:35:05.648Z,19.80
2018-04-11T09:37:31.662Z,19.80
2018-04-11T09:39:57.715Z,19.90
2018-04-11T09:42:23.691Z,19.90
2018-04-11T09:44:49.696Z,20.00
2018-04-11T09:47:15.827Z,20.10
2018-04-11T09:49:41.788Z,20.40
2018-04-11T09:52:07.796Z,20.30
2018-04-11T09:54:33.797Z,20.20
2018-04-11T09:57:00.583Z,20.40
2018-04-11T09:59:26.599Z,20.40
2018-04-11T10:01:53.304Z,20.30
2018-04-11T10:04:19.311Z,20.30
2018-04-11T10:06:45.371Z,20.10
2018-04-11T10:09:11.390Z,19.90
2018-04-11T10:11:37.340Z,20.10
2018-04-11T10:14:03.347Z,20.30
2018-04-11T10:16:29.376Z,20.60
2018-04-11T10:18:55.395Z,20.80
2018-04-11T10:21:22.105Z,20.90
2018-04-11T10:23:48.061Z,20.90
2018-04-11T10:26:14.055Z,21.20
2018-04-11T10:28:40.305Z,21.20
2018-04-11T10:31:06.277Z,21.50
2018-04-11T10:33:32.321Z,21.50
2018-04-11T10:35:59.190Z,21.50
2018-04-11T10:38:25.887Z,21.50
2018-04-11T10:40:51.869Z,21.60
2018-04-11T10:43:17.863Z,21.40
2018-04-11T10:45:43.854Z,21.50
2018-04-11T10:48:09.864Z,21.60
2018-04-11T10:50:35.849Z,21.70
2018-04-11T10:53:01.851Z,21.80
2018-04-11T10:55:27.855Z,21.70
2018-04-11T10:57:53.863Z,21.50
2018-04-11T11:00:19.857Z,21.70
2018-04-11T11:02:45.852Z,21.90
2018-04-11T11:05:11.807Z,22.30
2018-04-11T11:07:37.846Z,22.30
2018-04-11T11:10:03.836Z,22.20
2018-04-11T11:12:30.604Z,22.20
2018-04-11T11:14:56.567Z,22.20
2018-04-11T11:17:22.555Z,22.20
2018-04-11T11:20:00.509Z,21.40
2018-04-11T11:22:26.545Z,21.40
2018-04-11T11:24:53.480Z,21.80
2018-04-11T11:27:19.458Z,22.30
2018-04-11T11:29:45.447Z,22.20
2018-04-11T11:32:11.439Z,22.50
2018-04-11T11:34:37.407Z,22.70
2018-04-11T11:37:04.148Z,22.90
2018-04-11T11:39:30.143Z,22.90
2018-04-11T11:41:56.127Z,22.60
2018-04-11T11:44:22.632Z,22.80
2018-04-11T11:46:48.595Z,23.00
2018-04-11T11:49:14.597Z,22.80
2018-04-11T11:51:40.667Z,22.90
2018-04-11T11:54:06.627Z,22.80
2018-04-11T11:56:33.323Z,22.50
2018-04-11T11:58:59.340Z,22.50
2018-04-11T12:01:25.338Z,22.40
2018-04-11T12:03:51.285Z,22.60
2018-04-11T12:06:17.303Z,22.70
2018-04-11T12:08:43.304Z,22.90
2018-04-11T12:11:09.374Z,22.90
2018-04-11T12:13:35.351Z,23.00
2018-04-11T12:16:01.429Z,23.20
2018-04-11T12:18:27.424Z,23.40
2018-04-11T12:20:54.156Z,22.80
2018-04-11T12:23:20.146Z,22.80
2018-04-11T12:25:46.143Z,22.70
2018-04-11T12:28:12.884Z,23.30
2018-04-11T12:30:39.674Z,24.00
2018-04-11T12:33:05.679Z,24.00
2018-04-11T12:35:32.423Z,25.60
2018-04-11T12:37:58.404Z,25.50
2018-04-11T12:40:24.410Z,25.50
2018-04-11T12:42:51.117Z,26.50
2018-04-11T12:45:17.112Z,26.40
2018-04-11T12:47:43.073Z,26.80
2018-04-11T12:50:09.103Z,26.70
2018-04-11T12:52:35.059Z,26.70
2018-04-11T12:55:01.033Z,26.60
2018-04-11T12:57:27.051Z,26.40
2018-04-11T12:59:53.007Z,26.30
2018-04-11T13:02:19.008Z,26.10
2018-04-11T13:04:44.985Z,25.60
2018-04-11T13:07:11.786Z,25.40
2018-04-11T13:09:37.769Z,25.40
2018-04-11T13:12:03.729Z,25.20
2018-04-11T13:14:29.769Z,25.00
2018-04-11T13:16:55.744Z,24.50
2018-04-11T13:19:21.715Z,24.20
2018-04-11T13:21:47.739Z,24.10
2018-04-11T13:24:13.816Z,23.80
2018-04-11T13:26:39.834Z,23.80
2018-04-11T13:29:06.552Z,25.60
2018-04-11T13:31:32.561Z,25.60
2018-04-11T13:33:58.584Z,26.70
2018-04-11T13:36:25.328Z,29.70
2018-04-11T13:38:51.323Z,29.60
2018-04-11T13:41:17.364Z,29.70
2018-04-11T13:43:43.344Z,30.80
2018-04-11T13:46:10.146Z,29.50
2018-04-11T13:48:36.128Z,29.50
2018-04-11T13:51:02.105Z,28.60
2018-04-11T13:53:28.107Z,29.60
2018-04-11T13:55:54.064Z,30.40
2018-04-11T13:58:20.043Z,30.50
2018-04-11T14:00:45.999Z,30.50
2018-04-11T14:03:13.090Z,29.80
2018-04-11T14:05:39.632Z,29.80
2018-04-11T14:08:05.587Z,29.60
2018-04-11T14:10:31.612Z,29.80
2018-04-11T14:12:58.072Z,30.70
2018-04-11T14:15:24.538Z,30.40
2018-04-11T14:17:50.574Z,30.00
2018-04-11T14:20:16.588Z,29.40
2018-04-11T14:22:42.586Z,28.50
2018-04-11T14:25:09.841Z,27.70
2018-04-11T14:27:36.369Z,27.70
2018-04-11T14:30:02.385Z,28.30
2018-04-11T14:32:28.830Z,28.70
2018-04-11T14:34:54.811Z,29.20
2018-04-11T14:37:21.165Z,28.70
2018-04-11T14:39:47.920Z,28.20
2018-04-11T14:42:15.146Z,27.80
2018-04-11T14:44:41.479Z,27.80
2018-04-11T14:47:07.497Z,28.00
2018-04-11T14:49:33.503Z,27.70
2018-04-11T14:52:00.205Z,28.60
2018-04-11T14:54:26.247Z,28.60
2018-04-11T14:56:52.235Z,28.60
2018-04-11T14:59:18.948Z,27.90
2018-04-11T15:01:44.934Z,27.90
2018-04-11T15:04:11.675Z,27.60
2018-04-11T15:06:37.936Z,27.60
2018-04-11T15:09:03.953Z,27.50
2018-04-11T15:11:30.660Z,26.80
2018-04-11T15:13:56.655Z,26.80
2018-04-11T15:16:23.339Z,26.40
2018-04-11T15:18:49.354Z,26.40
2018-04-11T15:21:15.345Z,26.10
2018-04-11T15:23:41.424Z,25.80
2018-04-11T15:26:07.760Z,25.70
2018-04-11T15:28:34.480Z,25.00
2018-04-11T15:31:00.536Z,25.00
2018-04-11T15:33:26.486Z,24.70
2018-04-11T15:35:53.222Z,24.60
2018-04-11T15:38:19.204Z,24.50
2018-04-11T15:40:45.239Z,24.60
2018-04-11T15:43:11.256Z,24.40
2018-04-11T15:45:38.085Z,24.00
2018-04-11T15:48:04.065Z,24.00
2018-04-11T15:50:30.041Z,24.00
2018-04-11T15:52:57.077Z,23.90
2018-04-11T15:55:23.051Z,23.70
2018-04-11T15:57:49.049Z,23.80
2018-04-11T16:00:15.040Z,23.80
2018-04-11T16:02:41.804Z,23.50
2018-04-11T16:05:07.868Z,23.50
2018-04-11T16:07:33.836Z,23.60
2018-04-11T16:09:59.811Z,23.80
2018-04-11T16:12:26.599Z,23.70
2018-04-11T16:14:52.547Z,23.70
2018-04-11T16:17:18.528Z,23.80
2018-04-11T16:19:44.525Z,23.90
2018-04-11T16:22:10.582Z,23.80
2018-04-11T16:24:36.569Z,23.90
2018-04-11T16:27:02.561Z,23.90
2018-04-11T16:29:28.551Z,23.70
2018-04-11T16:31:54.570Z,23.40
2018-04-11T16:34:21.260Z,23.20
2018-04-11T16:36:47.225Z,23.10
2018-04-11T16:39:13.246Z,23.10
2018-04-11T16:41:39.274Z,23.10
2018-04-11T16:44:05.323Z,22.90
2018-04-11T16:46:31.285Z,22.80
2018-04-11T16:48:57.323Z,22.70
2018-04-11T16:51:23.257Z,22.70
2018-04-11T16:53:49.215Z,22.40
2018-04-11T16:56:15.205Z,22.30
2018-04-11T16:58:41.230Z,22.40
2018-04-11T17:01:07.188Z,22.40
2018-04-11T17:03:40.443Z,22.30
2018-04-11T17:06:06.528Z,22.10
2018-04-11T17:08:32.480Z,22.20
2018-04-11T17:10:58.472Z,22.20
2018-04-11T17:13:24.460Z,22.10
2018-04-11T17:15:51.155Z,21.70
2018-04-11T17:18:17.171Z,21.70
2018-04-11T17:20:56.332Z,21.70
2018-04-11T17:23:34.773Z,21.60
2018-04-11T17:26:13.251Z,21.40
2018-04-11T17:28:51.720Z,21.20
2018-04-11T17:31:33.772Z,21.10
2018-04-11T17:33:59.771Z,20.90
2018-04-11T17:36:25.724Z,20.60
2018-04-11T17:38:52.452Z,20.60
2018-04-11T17:41:18.410Z,20.60
2018-04-11T17:43:44.403Z,20.50
2018-04-11T17:46:11.185Z,20.30
2018-04-11T17:48:37.132Z,20.20
2018-04-11T17:51:03.137Z,20.20
2018-04-11T17:53:29.142Z,20.20
2018-04-11T17:55:55.091Z,20.20
2018-04-11T17:58:21.832Z,19.80
2018-04-11T18:00:47.807Z,19.70
2018-04-11T18:03:14.531Z,19.70
2018-04-11T18:05:41.256Z,19.60
2018-04-11T18:08:07.293Z,19.60
2018-04-11T18:10:33.337Z,19.50
2018-04-11T18:12:59.294Z,19.40
2018-04-11T18:15:25.279Z,19.40
2018-04-11T18:17:51.255Z,19.40
2018-04-11T18:20:18.756Z,19.10
2018-04-11T18:22:45.457Z,19.10
2018-04-11T18:25:11.475Z,19.00
2018-04-11T18:27:37.496Z,19.00
2018-04-11T18:30:03.498Z,18.90
2018-04-11T18:32:29.477Z,18.90
2018-04-11T18:34:55.437Z,18.90
2018-04-11T18:37:21.428Z,18.80
2018-04-11T18:39:48.127Z,18.80
2018-04-11T18:42:14.119Z,18.70
2018-04-11T18:44:40.844Z,18.50
2018-04-11T18:47:06.821Z,18.50
2018-04-11T18:49:32.799Z,18.50
2018-04-11T18:51:58.780Z,18.40
2018-04-11T18:54:25.512Z,18.40
2018-04-11T18:56:51.483Z,18.40
2018-04-11T18:59:17.497Z,18.40
2018-04-11T19:01:43.479Z,18.30
2018-04-11T19:04:09.608Z,18.20
2018-04-11T19:06:35.607Z,18.20
2018-04-11T19:09:01.573Z,18.10
2018-04-11T19:11:27.579Z,18.10
2018-04-11T19:13:53.523Z,18.00
2018-04-11T19:16:20.242Z,17.80
2018-04-11T19:18:46.356Z,17.70
2018-04-11T19:21:12.374Z,17.80
2018-04-11T19:23:38.361Z,17.80
2018-04-11T19:26:04.331Z,17.90
2018-04-11T19:28:31.068Z,17.80
2018-04-11T19:30:57.071Z,17.70
2018-04-11T19:33:23.055Z,17.70
2018-04-11T19:35:49.815Z,17.70
2018-04-11T19:38:16.535Z,17.50
2018-04-11T19:40:42.611Z,17.50
2018-04-11T19:43:09.402Z,17.60
2018-04-11T19:45:35.414Z,17.60
2018-04-11T19:48:01.389Z,17.40
2018-04-11T19:50:27.428Z,17.30
2018-04-11T19:52:53.405Z,17.40
2018-04-11T19:55:20.096Z,17.40
2018-04-11T19:57:46.137Z,17.40
2018-04-11T20:00:12.136Z,17.30
2018-04-11T20:02:38.898Z,17.20
2018-04-11T20:05:04.856Z,17.20
2018-04-11T20:07:30.882Z,17.10
2018-04-11T20:09:57.574Z,17.10
2018-04-11T20:12:23.507Z,17.10
2018-04-11T20:14:49.495Z,17.00
2018-04-11T20:17:16.186Z,17.10
2018-04-11T20:19:42.215Z,17.10
2018-04-11T20:22:08.328Z,17.00
2018-04-11T20:24:34.324Z,16.90
2018-04-11T20:27:00.309Z,16.90
2018-04-11T20:29:26.277Z,16.90
2018-04-11T20:31:52.284Z,16.80
2018-04-11T20:34:18.245Z,16.70
2018-04-11T20:36:44.224Z,16.70
2018-04-11T20:39:10.983Z,16.60
2018-04-11T20:41:37.717Z,16.50
2018-04-11T20:44:03.681Z,16.50
2018-04-11T20:46:29.640Z,16.40
2018-04-11T20:48:55.679Z,16.30
2018-04-11T20:51:21.632Z,16.20
2018-04-11T20:53:47.587Z,16.10
2018-04-11T20:56:13.607Z,16.10
2018-04-11T20:58:39.580Z,16.10
2018-04-11T21:01:06.306Z,16.30
2018-04-11T21:03:32.267Z,16.30
2018-04-11T21:05:58.334Z,16.10
2018-04-11T21:08:24.272Z,16.10
2018-04-11T21:10:50.253Z,16.00
2018-04-11T21:13:16.235Z,15.90
2018-04-11T21:15:42.297Z,15.80
2018-04-11T21:18:08.330Z,15.80
2018-04-11T21:20:34.307Z,15.80
2018-04-11T21:23:00.260Z,15.90
2018-04-11T21:25:26.971Z,15.70
2018-04-11T21:27:52.953Z,15.60
2018-04-11T21:30:19.631Z,15.50
2018-04-11T21:32:45.619Z,15.50
2018-04-11T21:35:11.615Z,15.50
2018-04-11T21:37:37.617Z,15.40
2018-04-11T21:40:04.307Z,15.30
2018-04-11T21:42:30.264Z,15.20
2018-04-11T21:44:56.257Z,15.20
2018-04-11T21:47:22.209Z,15.10
2018-04-11T21:49:48.187Z,15.10
2018-04-11T21:52:14.145Z,15.00
2018-04-11T21:54:40.898Z,15.10
2018-04-11T21:57:07.613Z,15.10
2018-04-11T21:59:33.580Z,15.00
2018-04-11T22:01:59.559Z,15.00
2018-04-11T22:04:25.535Z,15.00
2018-04-11T22:06:51.527Z,14.90
2018-04-11T22:09:17.511Z,15.00
2018-04-11T22:11:43.503Z,14.90
2018-04-11T22:14:09.589Z,14.70
2018-04-11T22:16:35.544Z,14.70
2018-04-11T22:19:02.265Z,14.50
2018-04-11T22:21:28.245Z,14.50
2018-04-11T22:23:54.214Z,14.70
2018-04-11T22:26:20.152Z,14.70
2018-04-11T22:28:46.146Z,14.70
2018-04-11T22:31:12.836Z,14.60
2018-04-11T22:33:38.860Z,14.50
2018-04-11T22:36:04.803Z,14.50
2018-04-11T22:38:30.796Z,14.40
2018-04-11T22:40:57.499Z,14.40
2018-04-11T22:43:23.480Z,14.40
2018-04-11T22:45:49.424Z,14.40
2018-04-11T22:48:16.167Z,14.40
2018-04-11T22:50:42.140Z,14.40
2018-04-11T22:53:08.141Z,14.40
2018-04-11T22:55:34.888Z,14.30
2018-04-11T22:58:00.839Z,14.30
2018-04-11T23:00:27.527Z,14.40
2018-04-11T23:02:53.495Z,14.40
2018-04-11T23:05:19.447Z,14.50
2018-04-11T23:07:45.440Z,14.30
2018-04-11T23:10:11.404Z,14.30
2018-04-11T23:12:37.448Z,14.20
2018-04-11T23:15:03.408Z,14.10
2018-04-11T23:17:30.112Z,14.00
2018-04-11T23:19:56.099Z,13.90
2018-04-11T23:22:22.812Z,13.80
2018-04-11T23:24:48.797Z,13.80
2018-04-11T23:27:15.532Z,13.70
2018-04-11T23:29:41.514Z,13.70
2018-04-11T23:32:07.501Z,13.70
2018-04-11T23:34:34.227Z,13.70
2018-04-11T23:37:00.171Z,13.70
2018-04-11T23:39:26.144Z,13.60
2018-04-11T23:41:52.866Z,13.70
2018-04-11T23:44:18.825Z,13.60
2018-04-11T23:46:45.548Z,13.60
2018-04-11T23:49:11.546Z,13.50
2018-04-11T23:51:37.499Z,13.50
2018-04-11T23:54:03.485Z,13.50
2018-04-11T23:56:30.181Z,13.30
2018-04-11T23:58:56.156Z,13.30
